Accueil
METAR-TAF:

METAR-TAF

Aéroports :

Aérodrome de Logrogne

Logroño, Espagne

latitude: 42-27N, longitude: 002-20W, altitude: 353 m

Observation

Le bulletin a été fait il y a 25 minutes, à 19:00 UTC
Vent 2 kt de direction variable
Température 18°C
Humidité 73%
Pression 1019 hPa
Visibilité 10 km ou plus
Nuages épars à une hauteur de 4500 ft

METAR: LELO 191900Z VRB02KT 9999 SCT045 18/13 Q1019

Heure: 21:25 (19:25 UTC)

Prévision

Le bulletin a été fait il y a 2 heures et 25 minutes, à 17:00 UTC
Prévision valable du 19 à 18 UTC au 20 à 03 UTC
Vent 5 kt de direction variable
Visibilité 10 km ou plus
Nuages épars à une hauteur de 4000 ft
Nuages épars à une hauteur de 6000 ft
Probabilité 30% :
Temporairement
du 19 à 18 UTC au 20 à 03 UTC
Visibilité: 3000 m
Nuages fragmentés à une hauteur de 1200 ft
pluie

TAF: LELO 191700Z 1918/2003 VRB05KT 9999 SCT040 SCT060 PROB30 TEMPO 1918/2003 3000 RA BKN012

Observations et prévisions météorologiques de plus de 4000 aéroports (messages METAR et TAF).

Les stations disponibles sont représentées par des disques jaunes et rouges sur la carte.

Passer la souris dessus pour voir le nom de la station.

Cliquer dessus pour voir les observations et prévisions météorologiques.

Pour changer de carte: cliquez sur les boutons verts avec une croix noire pour zoomer, sur le bouton vert avec un tiret pour effectuer un zoom arrière, ou sur les flèches vertes pour les cartes adjacentes.


METAR-TAF: